Time;durP1;ratioP1;P1;durP2;ratioP2;P2;SDS_P1;SDS_P2;PMS_P1;PMS_P2;Temp;Humidity;BMP_temperature;BMP_pressure;BME280_temperature;BME280_humidity;BME280_pressure;Samples;Min_cycle;Max_cycle;Signal;HPM_P1;HPM_P2
2023/01/04 00:02:13;;;;;;;1.83;1.10;;;;;;;;;;5013726;28;20053;-73
2023/01/04 00:04:40;;;;;;;1.95;1.30;;;;;;;;;;5014311;28;20057;-73
2023/01/04 00:07:07;;;;;;;1.60;1.20;;;;;;;;;;5018578;28;20050;-73
2023/01/04 00:09:35;;;;;;;2.65;1.23;;;;;;;;;;5033680;28;20053;-73
2023/01/04 00:12:02;;;;;;;2.88;1.20;;;;;;;;;;5033711;28;20157;-73
2023/01/04 00:14:29;;;;;;;1.50;1.10;;;;;;;;;;5033607;28;20057;-73
2023/01/04 00:16:57;;;;;;;2.25;1.27;;;;;;;;;;5033775;28;20061;-73
2023/01/04 00:19:24;;;;;;;1.77;1.20;;;;;;;;;;5033342;28;20057;-73
2023/01/04 00:21:52;;;;;;;2.28;1.27;;;;;;;;;;5033222;28;20140;-73
2023/01/04 00:24:19;;;;;;;1.60;1.10;;;;;;;;;;5033353;28;20057;-73
2023/01/04 00:26:46;;;;;;;2.15;1.10;;;;;;;;;;5033181;28;20060;-73
2023/01/04 00:29:13;;;;;;;1.85;1.23;;;;;;;;;;5032350;28;20132;-73
2023/01/04 00:31:40;;;;;;;1.52;1.10;;;;;;;;;;5033195;28;20136;-73
2023/01/04 00:34:09;;;;;;;2.10;1.15;;;;;;;;;;5032916;28;20076;-73
2023/01/04 00:36:36;;;;;;;1.58;1.17;;;;;;;;;;5031877;28;20053;-73
2023/01/04 00:39:06;;;;;;;1.80;1.13;;;;;;;;;;5033271;28;20059;-73
2023/01/04 00:41:34;;;;;;;2.80;1.50;;;;;;;;;;5032895;28;20453;-73
2023/01/04 00:44:02;;;;;;;1.77;1.00;;;;;;;;;;5033091;28;20065;-73
2023/01/04 00:46:29;;;;;;;1.38;1.17;;;;;;;;;;5033073;28;20056;-73
2023/01/04 00:48:56;;;;;;;2.47;1.20;;;;;;;;;;5032529;28;20160;-73
2023/01/04 00:51:24;;;;;;;1.35;1.02;;;;;;;;;;5033132;28;20057;-73
2023/01/04 00:53:52;;;;;;;2.25;1.13;;;;;;;;;;5032502;28;20132;-73
2023/01/04 00:56:19;;;;;;;1.70;1.20;;;;;;;;;;5033029;28;20080;-73
2023/01/04 00:58:46;;;;;;;1.42;1.08;;;;;;;;;;5032819;28;20049;-73
2023/01/04 01:01:13;;;;;;;1.70;1.23;;;;;;;;;;5032830;28;20057;-73
2023/01/04 01:03:40;;;;;;;1.50;1.00;;;;;;;;;;5032025;28;20049;-73
2023/01/04 01:06:07;;;;;;;1.45;1.15;;;;;;;;;;5032738;28;20067;-73
2023/01/04 01:08:36;;;;;;;1.75;1.08;;;;;;;;;;5032477;28;20055;-73
2023/01/04 01:11:03;;;;;;;1.90;1.20;;;;;;;;;;5032546;28;20061;-73
2023/01/04 01:13:30;;;;;;;1.60;1.10;;;;;;;;;;5032328;28;20049;-73
2023/01/04 01:15:58;;;;;;;1.42;1.00;;;;;;;;;;5032381;28;20049;-73
2023/01/04 01:18:25;;;;;;;2.90;1.20;;;;;;;;;;5031569;28;20140;-73
2023/01/04 01:20:52;;;;;;;2.45;1.10;;;;;;;;;;5032566;28;20053;-73
2023/01/04 01:23:19;;;;;;;1.55;1.08;;;;;;;;;;5031902;28;20049;-73
2023/01/04 01:25:47;;;;;;;2.28;1.10;;;;;;;;;;5032511;28;20049;-73
2023/01/04 01:28:14;;;;;;;1.83;1.00;;;;;;;;;;5032059;28;20053;-73
2023/01/04 01:30:41;;;;;;;2.10;1.20;;;;;;;;;;5032467;28;20148;-73
2023/01/04 01:33:08;;;;;;;1.90;1.10;;;;;;;;;;5031973;28;20068;-73
2023/01/04 01:35:35;;;;;;;1.88;1.20;;;;;;;;;;5032323;28;20517;-73
2023/01/04 01:38:03;;;;;;;1.35;1.10;;;;;;;;;;5031682;28;20061;-73
2023/01/04 01:40:30;;;;;;;1.50;1.02;;;;;;;;;;5031494;28;20073;-73
2023/01/04 01:42:58;;;;;;;2.35;1.27;;;;;;;;;;5031676;28;20054;-73
2023/01/04 01:45:30;;;;;;;1.25;1.00;;;13.50;74.70;;;;;;5031590;28;20144;-73
2023/01/04 01:48:00;;;;;;;1.25;1.00;;;13.40;73.90;;;;;;5016226;28;20455;-73
2023/01/04 01:50:28;;;;;;;2.17;1.30;;;;;;;;;;5011557;28;20055;-73
2023/01/04 01:52:55;;;;;;;1.23;1.08;;;;;;;;;;5012004;28;20049;-73
2023/01/04 01:55:22;;;;;;;1.27;1.00;;;;;;;;;;5012147;28;20061;-73
2023/01/04 01:57:49;;;;;;;1.27;1.13;;;;;;;;;;5012104;28;20557;-73
2023/01/04 02:00:18;;;;;;;1.52;1.10;;;;;;;;;;5013458;28;20488;-73
2023/01/04 02:02:49;;;;;;;1.58;1.10;;;13.40;74.80;;;;;;5031319;28;20054;-73
2023/01/04 02:05:17;;;;;;;1.20;1.10;;;;;;;;;;5031644;28;20136;-73
2023/01/04 02:07:44;;;;;;;1.95;1.20;;;;;;;;;;5031322;28;20132;-73
2023/01/04 02:10:11;;;;;;;1.52;1.00;;;;;;;;;;5031306;28;20053;-73
2023/01/04 02:12:38;;;;;;;2.20;1.30;;;;;;;;;;5031363;28;20045;-73
2023/01/04 02:15:05;;;;;;;1.52;1.17;;;;;;;;;;5029754;28;20052;-73
2023/01/04 02:17:36;;;;;;;1.80;1.10;;;13.40;74.90;;;;;;5011530;28;20448;-73
2023/01/04 02:20:15;;;;;;;1.77;1.10;;;13.30;74.80;;;;;;5011563;28;20061;-73
2023/01/04 02:23:26;;;;;;;1.40;1.10;;;13.40;74.70;;;;;;5011536;28;20137;-73
2023/01/04 02:26:11;;;;;;;1.05;0.95;;;;;;;;;;4996210;28;20065;-73
2023/01/04 02:28:49;;;;;;;1.13;0.90;;;13.30;74.80;;;;;;5031114;28;20067;-73
2023/01/04 02:31:20;;;;;;;1.38;1.10;;;;;;;;;;5031140;28;20388;-73
2023/01/04 02:33:48;;;;;;;1.95;1.02;;;;;;;;;;5031124;28;20606;-73
2023/01/04 02:36:17;;;;;;;1.40;1.05;;;;;;;;;;5030526;28;20057;-73
2023/01/04 02:38:55;;;;;;;2.22;1.00;;;;;;;;;;5028887;28;20059;-73
2023/01/04 02:41:22;;;;;;;1.13;1.00;;;;;;;;;;5011059;28;20064;-73
2023/01/04 02:46:37;;;;;;;;;;;13.30;74.50;;;;;;5000956;28;20045;-73
2023/01/04 02:51:49;;;;;;;1.55;0.95;;;;;;;;;;5030786;28;20128;-73
2023/01/04 02:54:17;;;;;;;1.50;1.10;;;;;;;;;;5030167;28;20053;-73
2023/01/04 02:56:51;;;;;;;2.10;1.20;;;;;;;;;;5030660;28;20053;-73
2023/01/04 02:59:24;;;;;;;1.30;1.00;;;;;;;;;;5030310;28;20061;-73
2023/01/04 03:07:32;;;;;;;1.10;1.00;;;;;;;;;;5030609;28;20053;-72
2023/01/04 03:10:00;;;;;;;1.48;1.00;;;;;;;;;;5029529;28;20049;-73
2023/01/04 03:12:30;;;;;;;1.55;1.00;;;;;;;;;;5030390;28;20049;-73
2023/01/04 03:14:59;;;;;;;0.80;0.80;;;;;;;;;;5030664;28;20449;-73
2023/01/04 03:17:27;;;;;;;1.35;0.90;;;;;;;;;;5030360;28;20064;-73
2023/01/04 03:19:54;;;;;;;1.25;0.95;;;;;;;;;;5030480;28;20159;-73
2023/01/04 03:36:22;;;;;;;1.40;1.27;;;;;;;;;;5030200;28;20148;-73
2023/01/04 03:49:56;;;;;;;;;;;;;;;;;;5030709;28;20053;-73
2023/01/04 03:52:25;;;;;;;1.00;0.93;;;;;;;;;;5031258;28;19931;-73
2023/01/04 03:54:52;;;;;;;1.05;0.90;;;;;;;;;;5014096;28;20061;-73
2023/01/04 03:57:19;;;;;;;0.98;0.88;;;;;;;;;;5010414;28;20076;-72
2023/01/04 03:59:46;;;;;;;1.17;0.93;;;;;;;;;;5010426;28;20058;-73
2023/01/04 04:02:13;;;;;;;1.33;1.00;;;;;;;;;;5009906;28;20466;-73
2023/01/04 04:10:11;;;;;;;0.93;0.82;;;;;;;;;;5013927;28;20049;-73
2023/01/04 04:12:38;;;;;;;1.00;0.90;;;;;;;;;;5013887;28;20052;-73
2023/01/04 04:15:06;;;;;;;2.25;1.00;;;;;;;;;;5013979;28;20136;-73
2023/01/04 04:17:33;;;;;;;0.80;0.80;;;;;;;;;;5015083;28;20060;-73
2023/01/04 04:20:00;;;;;;;0.70;0.70;;;;;;;;;;5013637;28;20089;-73
2023/01/04 04:22:28;;;;;;;0.80;0.80;;;;;;;;;;5019632;28;20140;-73
2023/01/04 04:24:55;;;;;;;0.90;0.90;;;;;;;;;;5033455;28;20509;-73
2023/01/04 04:27:22;;;;;;;1.73;0.80;;;;;;;;;;5033574;28;20059;-73
2023/01/04 04:29:49;;;;;;;0.85;0.80;;;;;;;;;;5033297;28;20064;-73
2023/01/04 04:32:16;;;;;;;0.90;0.88;;;;;;;;;;5033409;28;20066;-73
2023/01/04 04:34:43;;;;;;;1.00;0.77;;;;;;;;;;5034515;28;20064;-72
2023/01/04 04:37:10;;;;;;;1.15;0.82;;;;;;;;;;5032129;28;20133;-73
2023/01/04 04:39:39;;;;;;;1.45;0.80;;;;;;;;;;5033324;28;20063;-73
2023/01/04 04:42:05;;;;;;;1.30;0.90;;;;;;;;;;5032844;28;20425;-73
2023/01/04 04:44:33;;;;;;;1.02;0.80;;;13.10;74.90;;;;;;5033023;28;20049;-73
2023/01/04 04:47:01;;;;;;;0.93;0.80;;;;;;;;;;5033121;28;20132;-72
2023/01/04 04:49:28;;;;;;;0.82;0.80;;;;;;;;;;5022839;28;20418;-73
2023/01/04 04:51:56;;;;;;;0.77;0.73;;;;;;;;;;5013300;28;20578;-73
2023/01/04 04:54:23;;;;;;;1.05;0.80;;;;;;;;;;5013125;28;20498;-73
2023/01/04 04:56:51;;;;;;;1.20;0.90;;;;;;;;;;5013324;28;20067;-72
2023/01/04 04:59:18;;;;;;;0.93;0.82;;;;;;;;;;5013039;28;20050;-72
2023/01/04 05:01:45;;;;;;;0.90;0.90;;;;;;;;;;5013225;28;20501;-73
2023/01/04 05:04:15;;;;;;;0.95;0.80;;;;;;;;;;5028259;28;20542;-73
2023/01/04 05:06:42;;;;;;;1.15;0.80;;;;;;;;;;5032763;28;20142;-73
2023/01/04 05:09:09;;;;;;;1.02;0.77;;;;;;;;;;5032572;28;20049;-73
2023/01/04 05:14:22;;;;;;;0.90;0.90;;;;;;;;;;5032766;28;20045;-73
2023/01/04 05:16:49;;;;;;;0.73;0.73;;;;;;;;;;5031765;28;20057;-73
2023/01/04 05:19:16;;;;;;;0.88;0.77;;;;;;;;;;5032374;28;20053;-72
2023/01/04 05:21:43;;;;;;;0.73;0.73;;;;;;;;;;5032508;28;20512;-73
2023/01/04 05:24:11;;;;;;;0.70;0.70;;;;;;;;;;5032283;28;20051;-73
2023/01/04 05:26:38;;;;;;;0.80;0.80;;;;;;;;;;5032319;28;20053;-73
2023/01/04 05:29:05;;;;;;;1.27;0.82;;;;;;;;;;5031952;28;20053;-73
2023/01/04 05:31:32;;;;;;;0.85;0.80;;;;;;;;;;5032302;28;20053;-73
2023/01/04 05:33:59;;;;;;;0.77;0.77;;;;;;;;;;5032025;28;20057;-73
2023/01/04 05:36:27;;;;;;;0.80;0.80;;;;;;;;;;5032002;28;20137;-73
2023/01/04 05:38:54;;;;;;;0.73;0.70;;;;;;;;;;5032143;28;20092;-73
2023/01/04 05:44:05;;;;;;;0.95;0.80;;;;;;;;;;5031626;28;20045;-73
2023/01/04 05:46:34;;;;;;;1.00;0.90;;;;;;;;;;5026777;28;20136;-73
2023/01/04 05:49:01;;;;;;;0.60;0.60;;;;;;;;;;5011985;28;20217;-73
2023/01/04 05:51:28;;;;;;;1.10;0.80;;;;;;;;;;5011877;28;20049;-73
2023/01/04 05:53:55;;;;;;;0.65;0.63;;;;;;;;;;5011752;28;20053;-73
2023/01/04 05:56:22;;;;;;;0.60;0.60;;;;;;;;;;5011823;28;20060;-73
2023/01/04 05:58:49;;;;;;;0.70;0.70;;;;;;;;;;5012126;28;20053;-72
2023/01/04 06:01:16;;;;;;;0.60;0.60;;;;;;;;;;5011927;28;20096;-73
2023/01/04 06:03:45;;;;;;;0.80;0.80;;;;;;;;;;5012750;28;20064;-73
2023/01/04 06:06:12;;;;;;;1.02;0.60;;;;;;;;;;5012051;28;20384;-72
2023/01/04 06:08:39;;;;;;;0.60;0.60;;;;;;;;;;5011699;28;20384;-73
2023/01/04 06:11:06;;;;;;;1.20;0.75;;;;;;;;;;5011938;28;20487;-73
2023/01/04 06:13:33;;;;;;;0.75;0.70;;;;;;;;;;5012610;28;20054;-73
2023/01/04 06:16:00;;;;;;;1.25;0.77;;;;;;;;;;5021669;28;20053;-73
2023/01/04 06:18:27;;;;;;;0.60;0.60;;;;;;;;;;5031244;28;20053;-73
2023/01/04 06:20:55;;;;;;;0.90;0.90;;;;;;;;;;5031433;28;20053;-72
2023/01/04 06:23:22;;;;;;;1.13;0.90;;;;;;;;;;5031177;28;20053;-72
2023/01/04 06:25:49;;;;;;;0.70;0.70;;;;;;;;;;5031295;28;20136;-73
2023/01/04 06:28:16;;;;;;;0.65;0.65;;;;;;;;;;5030420;28;20096;-73
2023/01/04 06:30:43;;;;;;;0.70;0.70;;;;;;;;;;5016254;28;20060;-72
2023/01/04 06:33:11;;;;;;;1.30;0.90;;;;;;;;;;5011393;28;20060;-72
2023/01/04 06:35:38;;;;;;;0.77;0.70;;;;;;;;;;5011329;28;20056;-73
2023/01/04 06:38:06;;;;;;;0.70;0.70;;;;;;;;;;5029716;28;20128;-72
2023/01/04 06:40:33;;;;;;;1.08;0.80;;;;;;;;;;5031225;28;20140;-73
2023/01/04 06:43:00;;;;;;;1.00;0.80;;;;;;;;;;5030575;28;20067;-72
2023/01/04 06:45:27;;;;;;;1.17;0.63;;;;;;;;;;5016331;28;20057;-72
2023/01/04 06:47:54;;;;;;;0.70;0.70;;;;;;;;;;5015612;28;20064;-73
2023/01/04 06:50:21;;;;;;;0.60;0.60;;;;;;;;;;5011292;28;20053;-73
2023/01/04 06:52:49;;;;;;;0.70;0.70;;;;;;;;;;5010998;28;20058;-73
2023/01/04 06:55:17;;;;;;;0.70;0.70;;;;;;;;;;5011330;28;20133;-73
2023/01/04 06:57:44;;;;;;;0.60;0.60;;;;;;;;;;5010850;28;20062;-73
2023/01/04 07:00:12;;;;;;;0.60;0.60;;;;;;;;;;5010985;28;20080;-73
2023/01/04 07:02:39;;;;;;;0.70;0.70;;;;;;;;;;5012014;28;20050;-73
2023/01/04 07:05:06;;;;;;;0.70;0.63;;;;;;;;;;5010583;28;20060;-72
2023/01/04 07:07:34;;;;;;;0.68;0.68;;;;;;;;;;5010842;28;20128;-72
2023/01/04 07:10:01;;;;;;;0.60;0.60;;;;;;;;;;5012258;28;20085;-72
2023/01/04 07:12:29;;;;;;;1.50;0.82;;;;;;;;;;5010968;28;20384;-73
2023/01/04 07:14:56;;;;;;;0.65;0.65;;;;;;;;;;5019590;28;20069;-72
2023/01/04 07:17:24;;;;;;;0.68;0.68;;;;;;;;;;5018730;28;20049;-73
2023/01/04 07:19:51;;;;;;;0.60;0.60;;;;;;;;;;5023319;28;20068;-73
2023/01/04 07:22:18;;;;;;;0.60;0.60;;;;;;;;;;5021655;28;20061;-73
2023/01/04 07:24:45;;;;;;;0.70;0.70;;;;;;;;;;5024225;28;20057;-73
2023/01/04 07:27:12;;;;;;;0.73;0.60;;;;;;;;;;5020634;28;20063;-73
2023/01/04 07:29:42;;;;;;;0.70;0.70;;;;;;;;;;5014481;28;20129;-73
2023/01/04 07:32:09;;;;;;;0.60;0.60;;;;;;;;;;5010684;28;20058;-73
2023/01/04 07:34:37;;;;;;;0.70;0.70;;;;;;;;;;5010664;28;20071;-73
2023/01/04 07:37:04;;;;;;;0.80;0.80;;;;;;;;;;5020956;28;20057;-73
2023/01/04 07:39:31;;;;;;;0.50;0.50;;;;;;;;;;5032220;28;20061;-73
2023/01/04 07:41:58;;;;;;;0.70;0.50;;;;;;;;;;5034467;28;20137;-73
2023/01/04 07:44:26;;;;;;;0.70;0.70;;;;;;;;;;5022542;28;20132;-73
2023/01/04 07:46:55;;;;;;;0.60;0.60;;;;;;;;;;5030338;28;20064;-72
2023/01/04 07:49:22;;;;;;;0.55;0.55;;;;;;;;;;5034269;28;20059;-72
2023/01/04 07:51:49;;;;;;;0.73;0.63;;;;;;;;;;5034125;28;20059;-74
2023/01/04 07:54:16;;;;;;;1.02;0.70;;;;;;;;;;5033593;28;20052;-73
2023/01/04 07:56:43;;;;;;;0.60;0.60;;;;;;;;;;5033882;28;20053;-73
2023/01/04 07:59:11;;;;;;;0.70;0.70;;;;;;;;;;5034208;28;20057;-73
2023/01/04 08:01:38;;;;;;;0.60;0.60;;;;;;;;;;5022281;28;20513;-73
2023/01/04 08:04:07;;;;;;;0.60;0.60;;;;;;;;;;5013921;28;20054;-73
2023/01/04 08:06:34;;;;;;;0.60;0.60;;;;;;;;;;5014118;28;20058;-72
2023/01/04 08:09:01;;;;;;;0.57;0.57;;;;;;;;;;5014252;28;20487;-72
2023/01/04 08:11:28;;;;;;;0.60;0.60;;;;;;;;;;5014297;28;20410;-73
2023/01/04 08:13:55;;;;;;;0.95;0.70;;;;;;;;;;5014830;28;20422;-74
2023/01/04 08:16:23;;;;;;;0.65;0.55;;;;;;;;;;5025558;28;20392;-73
2023/01/04 08:18:53;;;;;;;0.70;0.70;;;;;;;;;;5027864;28;20049;-73
2023/01/04 08:21:21;;;;;;;0.93;0.70;;;;;;;;;;5024336;28;20057;-73
2023/01/04 08:23:48;;;;;;;2.50;0.52;;;;;;;;;;5021195;28;20050;-73
2023/01/04 08:26:15;;;;;;;1.00;0.60;;;;;;;;;;5021701;28;20056;-73
2023/01/04 08:28:43;;;;;;;1.35;0.80;;;;;;;;;;5025963;28;20128;-73
2023/01/04 08:31:10;;;;;;;1.25;0.63;;;13.80;72.00;;;;;;5021667;28;20483;-73
2023/01/04 08:33:37;;;;;;;0.60;0.60;;;;;;;;;;5022980;28;20436;-73
2023/01/04 08:36:08;;;;;;;1.38;0.75;;;;;;;;;;5027163;28;20540;-73
2023/01/04 08:38:36;;;;;;;0.60;0.60;;;13.90;74.20;;;;;;5024826;28;20661;-73
2023/01/04 08:41:03;;;;;;;0.65;0.57;;;;;;;;;;5022634;28;20059;-73
2023/01/04 08:43:31;;;;;;;0.70;0.70;;;;;;;;;;5022509;28;20049;-73
2023/01/04 08:45:58;;;;;;;3.60;0.90;;;;;;;;;;5020737;28;20050;-73
2023/01/04 08:48:26;;;;;;;0.77;0.60;;;;;;;;;;5014772;28;20046;-73
2023/01/04 08:50:53;;;;;;;1.67;0.70;;;;;;;;;;5023004;28;20128;-73
2023/01/04 08:53:20;;;;;;;0.60;0.60;;;;;;;;;;5025646;28;20413;-73
2023/01/04 08:55:52;;;;;;;0.77;0.52;;;;;;;;;;5024521;28;20473;-72
2023/01/04 08:58:19;;;;;;;0.57;0.50;;;;;;;;;;5045548;28;20136;-73
2023/01/04 09:00:46;;;;;;;1.42;0.63;;;;;;;;;;5023108;28;20137;-75
2023/01/04 09:03:13;;;;;;;1.77;0.68;;;;;;;;;;5024037;28;20483;-72
2023/01/04 09:05:40;;;;;;;0.90;0.60;;;;;;;;;;5021952;28;20406;-73
2023/01/04 09:08:07;;;;;;;1.25;0.60;;;;;;;;;;5022034;28;20062;-73
2023/01/04 09:10:34;;;;;;;1.92;1.00;;;;;;;;;;5012877;28;20050;-73
2023/01/04 09:13:03;;;;;;;4.57;1.25;;;;;;;;;;5012831;28;20061;-73
2023/01/04 09:15:30;;;;;;;2.17;1.02;;;;;;;;;;5012846;28;20054;-72
2023/01/04 09:17:57;;;;;;;4.35;1.10;;;;;;;;;;5012963;28;20061;-72
2023/01/04 09:20:24;;;;;;;2.92;1.00;;;;;;;;;;5014076;28;20053;-72
2023/01/04 09:22:51;;;;;;;3.67;1.13;;;;;;;;;;5012231;28;20057;-72
2023/01/04 09:25:18;;;;;;;1.83;0.98;;;;;;;;;;5012531;28;20050;-72
2023/01/04 09:27:45;;;;;;;4.28;1.35;;;;;;;;;;5020629;28;20069;-72
2023/01/04 09:30:14;;;;;;;5.18;1.20;;;;;;;;;;5032263;28;20056;-72
2023/01/04 09:32:41;;;;;;;3.88;0.98;;;;;;;;;;5032123;28;20054;-72
2023/01/04 09:35:08;;;;;;;7.28;2.03;;;;;;;;;;5032452;28;20136;-72
2023/01/04 09:37:35;;;;;;;4.18;1.20;;;;;;;;;;5031782;28;20067;-72
2023/01/04 09:40:03;;;;;;;2.05;1.13;;;;;;;;;;5032246;28;20059;-72
2023/01/04 09:42:31;;;;;;;5.53;1.25;;;14.60;73.20;;;;;;5032183;28;20064;-72
2023/01/04 09:45:00;;;;;;;1.67;1.00;;;;;;;;;;5031531;28;20062;-72
2023/01/04 09:47:35;;;;;;;2.75;1.00;;;14.60;73.00;;;;;;5032253;28;20076;-72
2023/01/04 09:50:04;;;;;;;4.00;1.40;;;;;;;;;;5031726;28;20060;-72
2023/01/04 09:52:39;;;;;;;3.28;1.30;;;14.70;73.30;;;;;;5031644;28;20056;-72
2023/01/04 09:55:08;;;;;;;1.60;0.77;;;;;;;;;;5031916;28;20594;-72
2023/01/04 09:57:36;;;;;;;2.50;1.08;;;;;;;;;;5032029;28;20067;-72
2023/01/04 10:00:05;;;;;;;1.73;1.08;;;14.70;72.80;;;;;;5031700;28;20060;-72
2023/01/04 10:02:34;;;;;;;3.33;1.08;;;;;;;;;;5031431;28;20053;-72
2023/01/04 10:05:01;;;;;;;3.63;1.20;;;;;;;;;;5031593;28;20060;-72
2023/01/04 10:07:29;;;;;;;3.65;1.10;;;14.70;70.60;;;;;;5031594;28;20058;-72
2023/01/04 10:09:56;;;;;;;4.57;1.10;;;;;;;;;;5031750;28;20065;-72
2023/01/04 10:12:27;;;;;;;3.05;1.33;;;;;;;;;;5031236;28;20414;-72
2023/01/04 10:14:57;;;;;;;2.08;0.98;;;;;;;;;;5031834;28;20045;-72
2023/01/04 10:17:27;;;;;;;3.25;1.40;;;;;;;;;;5031333;28;20127;-72
2023/01/04 10:20:03;;;;;;;2.45;1.02;;;14.80;72.80;;;;;;5031633;28;20049;-72
2023/01/04 10:22:34;;;;;;;3.03;1.10;;;14.70;72.70;;;;;;5031048;28;20057;-72
2023/01/04 10:25:07;;;;;;;4.60;1.10;;;14.80;72.80;;;;;;5032549;28;20053;-72
2023/01/04 10:27:37;;;;;;;2.45;1.13;;;14.80;72.70;;;;;;5032318;28;20045;-72
2023/01/04 10:30:13;;;;;;;1.67;1.00;;;14.80;72.80;;;;;;5030930;28;20049;-73
2023/01/04 10:32:41;;;;;;;3.47;1.02;;;;;;;;;;5031548;28;20409;-72
2023/01/04 10:35:17;;;;;;;4.13;1.40;;;14.90;72.70;;;;;;5032123;28;20058;-72
2023/01/04 10:37:44;;;;;;;1.70;0.90;;;;;;;;;;5027242;28;20132;-73
2023/01/04 10:40:13;;;;;;;1.85;1.00;;;;;;;;;;5030932;28;20095;-72
2023/01/04 10:42:40;;;;;;;2.35;1.00;;;;;;;;;;5025444;28;20053;-72
2023/01/04 10:45:09;;;;;;;2.63;1.10;;;;;;;;;;5020985;28;20411;-72
2023/01/04 10:47:38;;;;;;;3.17;1.10;;;14.90;70.30;;;;;;5028575;28;20132;-73
2023/01/04 10:50:08;;;;;;;2.35;1.40;;;;;;;;;;5021991;28;20107;-73
2023/01/04 10:52:37;;;;;;;2.60;1.20;;;;;;;;;;5016222;28;20052;-73
2023/01/04 10:55:06;;;;;;;1.73;1.10;;;14.90;72.80;;;;;;5024760;28;20406;-73
2023/01/04 10:57:36;;;;;;;3.55;1.20;;;14.90;72.90;;;;;;5029284;28;20142;-72
2023/01/04 11:00:05;;;;;;;2.53;1.20;;;14.90;72.20;;;;;;5031024;28;20057;-73
2023/01/04 11:02:34;;;;;;;2.58;1.08;;;;;;;;;;5027366;28;20514;-73
2023/01/04 11:05:03;;;;;;;3.20;1.50;;;14.80;72.90;;;;;;5025028;28;20386;-72
2023/01/04 11:07:32;;;;;;;1.60;1.10;;;;;;;;;;5015338;28;20064;-72
2023/01/04 11:10:01;;;;;;;2.53;1.00;;;;;;;;;;5020508;28;20410;-72
2023/01/04 11:12:29;;;;;;;1.45;0.90;;;;;;;;;;5024890;28;20049;-73
2023/01/04 11:14:56;;;;;;;2.33;1.10;;;;;;;;;;5030126;28;20049;-72
2023/01/04 11:17:23;;;;;;;3.00;1.27;;;;;;;;;;5030792;28;20513;-73
2023/01/04 11:19:50;;;;;;;1.60;1.00;;;;;;;;;;5030867;28;20509;-72
2023/01/04 11:22:19;;;;;;;4.38;1.20;;;;;;;;;;5029895;28;20063;-72
2023/01/04 11:24:46;;;;;;;1.77;1.33;;;;;;;;;;5030033;28;20087;-72
2023/01/04 11:27:16;;;;;;;2.42;1.05;;;14.70;71.40;;;;;;5029919;28;20443;-73
2023/01/04 11:29:44;;;;;;;4.07;1.10;;;;;;;;;;5030221;28;20065;-72
2023/01/04 11:32:14;;;;;;;3.97;1.17;;;;;;;;;;5030442;28;20481;-72
2023/01/04 11:34:45;;;;;;;2.05;1.00;;;;;;;;;;5030554;28;20096;-72
2023/01/04 11:37:23;;;;;;;1.35;1.00;;;;;;;;;;5030446;28;20140;-72
2023/01/04 11:39:50;;;;;;;2.78;0.98;;;;;;;;;;5030471;28;20111;-73
2023/01/04 11:42:20;;;;;;;1.83;0.90;;;;;;;;;;5030555;28;20567;-73
2023/01/04 11:44:58;;;;;;;1.75;1.10;;;;;;;;;;5030591;28;20063;-73
2023/01/04 11:47:27;;;;;;;2.83;1.35;;;;;;;;;;5030407;28;20053;-72
2023/01/04 11:49:54;;;;;;;2.13;1.08;;;;;;;;;;5021651;28;20053;-72
2023/01/04 11:52:31;;;;;;;2.28;1.10;;;14.50;69.70;;;;;;5013337;28;20479;-72
2023/01/04 11:54:58;;;;;;;1.98;1.00;;;;;;;;;;5020225;28;20398;-72
2023/01/04 11:57:26;;;;;;;1.95;1.00;;;;;;;;;;5028486;28;20410;-72
2023/01/04 12:00:08;;;;;;;2.13;1.10;;;14.50;73.20;;;;;;5026007;28;20125;-72
2023/01/04 12:02:35;;;;;;;1.92;0.95;;;;;;;;;;5014195;28;20065;-72
2023/01/04 12:05:02;;;;;;;2.90;1.15;;;;;;;;;;5022170;28;20069;-72
2023/01/04 12:07:30;;;;;;;1.48;0.88;;;14.50;73.70;;;;;;5027490;28;20068;-72
2023/01/04 12:09:58;;;;;;;2.17;1.10;;;;;;;;;;5030350;28;20573;-73
2023/01/04 12:12:28;;;;;;;2.17;1.17;;;;;;;;;;5029852;28;20108;-72
2023/01/04 12:14:56;;;;;;;4.38;1.77;;;;;;;;;;5031544;28;20054;-75
2023/01/04 12:17:23;;;;;;;2.28;0.90;;;;;;;;;;5030356;28;20509;-72
2023/01/04 12:19:52;;;;;;;1.90;0.95;;;;;;;;;;5029864;28;20056;-74
2023/01/04 12:22:20;;;;;;;3.38;1.20;;;;;;;;;;5029931;28;20049;-74
2023/01/04 12:24:47;;;;;;;2.08;1.10;;;;;;;;;;5031015;28;20132;-73
2023/01/04 12:27:14;;;;;;;3.00;1.27;;;;;;;;;;5032954;28;20057;-72
2023/01/04 12:29:44;;;;;;;3.30;1.30;;;;;;;;;;5033402;28;20507;-73
2023/01/04 12:32:30;;;;;;;2.03;1.10;;;;;;;;;;5033555;28;20064;-73
2023/01/04 12:34:57;;;;;;;1.70;1.15;;;;;;;;;;5033254;28;20045;-73
2023/01/04 12:37:48;;;;;;;2.15;0.98;;;;;;;;;;5032892;28;20060;-73
2023/01/04 12:40:51;;;;;;;3.05;1.10;;;14.40;70.40;;;;;;5032951;28;20068;-73
2023/01/04 12:43:19;;;;;;;1.52;1.10;;;;;;;;;;5032882;28;20054;-73
2023/01/04 12:49:02;;;;;;;2.63;1.00;;;14.40;74.30;;;;;;5032787;28;20486;-73
2023/01/04 12:51:19;;;;;;;1.77;1.00;;;;;;;;;;5032955;28;20072;-74
2023/01/04 12:53:56;;;;;;;2.20;0.95;;;;;;;;;;5033187;28;20322;-74
2023/01/04 12:56:23;;;;;;;1.80;1.00;;;;;;;;;;5032921;28;20075;-75
2023/01/04 12:59:05;;;;;;;2.75;1.02;;;;;;;;;;5033224;28;20061;-74
2023/01/04 13:01:34;;;;;;;3.95;1.23;;;;;;;;;;5033100;28;20054;-75
2023/01/04 13:04:02;;;;;;;3.63;1.05;;;;;;;;;;5032820;28;20084;-75
2023/01/04 13:06:29;;;;;;;4.80;1.17;;;;;;;;;;5032989;28;20077;-76
2023/01/04 13:08:56;;;;;;;2.17;1.02;;;;;;;;;;5032713;28;20403;-75
2023/01/04 13:11:46;;;;;;;2.40;1.10;;;14.40;74.60;;;;;;5033059;28;20515;-74
2023/01/04 13:14:14;;;;;;;2.28;1.13;;;14.30;73.30;;;;;;5029664;28;20049;-74
2023/01/04 13:16:44;;;;;;;1.90;1.02;;;;;;;;;;5027177;28;20050;-74
2023/01/04 13:19:14;;;;;;;2.40;1.00;;;14.30;74.70;;;;;;5024273;28;20062;-74
2023/01/04 13:21:41;;;;;;;3.40;1.30;;;;;;;;;;5021736;28;20409;-74
2023/01/04 13:24:18;;;;;;;2.17;1.17;;;14.40;74.90;;;;;;5024804;28;20061;-74
2023/01/04 13:26:47;;;;;;;4.10;1.30;;;;;;;;;;5019083;28;20129;-74
2023/01/04 13:29:18;;;;;;;4.38;1.40;;;;;;;;;;5026567;28;20058;-74
2023/01/04 13:31:53;;;;;;;2.80;1.00;;;;;;;;;;5016137;28;20136;-74
2023/01/04 13:34:22;;;;;;;2.30;1.13;;;;;;;;;;5023243;28;20137;-74
2023/01/04 13:36:56;;;;;;;4.00;1.20;;;;;;;;;;5026913;28;20049;-74
2023/01/04 13:39:23;;;;;;;3.35;1.00;;;;;;;;;;5032073;28;20053;-74
2023/01/04 13:41:51;;;;;;;2.90;1.30;;;;;;;;;;5032052;28;20054;-74
2023/01/04 13:44:20;;;;;;;2.63;1.20;;;;;;;;;;5032040;28;20096;-74
2023/01/04 13:46:47;;;;;;;3.42;1.15;;;;;;;;;;5023104;28;20133;-74
2023/01/04 13:49:16;;;;;;;2.00;1.00;;;14.40;74.80;;;;;;5030486;28;20064;-74
2023/01/04 13:51:43;;;;;;;2.55;1.23;;;;;;;;;;5031581;28;20059;-74
2023/01/04 13:54:18;;;;;;;2.58;1.10;;;;;;;;;;5030525;28;20128;-74
2023/01/04 13:56:45;;;;;;;3.10;1.50;;;;;;;;;;5031984;28;20053;-73
2023/01/04 13:59:12;;;;;;;2.72;1.08;;;;;;;;;;5031828;28;20057;-74
2023/01/04 14:01:41;;;;;;;3.90;1.17;;;14.40;74.20;;;;;;5031585;28;20132;-72
2023/01/04 14:04:15;;;;;;;2.17;1.10;;;14.40;74.80;;;;;;5031855;28;20068;-73
2023/01/04 14:06:43;;;;;;;2.25;1.00;;;;;;;;;;5031709;28;20053;-73
2023/01/04 14:09:14;;;;;;;5.90;1.55;;;14.50;74.90;;;;;;5032565;28;20413;-72
2023/01/04 14:12:01;;;;;;;3.85;1.30;;;14.40;72.60;;;;;;5031942;28;20440;-73
2023/01/04 14:14:35;;;;;;;3.63;1.20;;;;;;;;;;5031355;28;20141;-75
2023/01/04 14:17:15;;;;;;;3.45;1.20;;;14.50;74.90;;;;;;5031882;28;20049;-75
2023/01/04 14:19:44;;;;;;;3.38;1.23;;;;;;;;;;5031436;28;20059;-74
2023/01/04 14:22:25;;;;;;;3.13;1.20;;;;;;;;;;5031421;28;20053;-74
2023/01/04 14:24:52;;;;;;;2.55;0.93;;;;;;;;;;5031456;28;20482;-76
2023/01/04 14:27:32;;;;;;;3.90;1.30;;;14.50;75.10;;;;;;5031250;28;20506;-75
2023/01/04 14:29:59;;;;;;;4.63;1.25;;;;;;;;;;5031338;28;20486;-76
2023/01/04 14:32:26;;;;;;;2.78;1.42;;;;;;;;;;5031337;28;20058;-74
2023/01/04 14:34:55;;;;;;;1.77;1.17;;;;;;;;;;5031223;28;20061;-75
2023/01/04 14:37:22;;;;;;;3.33;1.50;;;;;;;;;;5030972;28;20053;-75
2023/01/04 14:39:49;;;;;;;3.35;1.17;;;;;;;;;;5031155;28;20053;-75
2023/01/04 14:42:24;;;;;;;3.75;1.40;;;;;;;;;;5030960;28;20053;-76
2023/01/04 14:44:51;;;;;;;4.93;1.42;;;;;;;;;;5031015;28;20079;-76
2023/01/04 14:47:18;;;;;;;5.72;1.42;;;;;;;;;;5030857;28;20049;-76
2023/01/04 14:49:45;;;;;;;3.08;1.30;;;;;;;;;;5030521;28;20136;-77
2023/01/04 14:52:20;;;;;;;2.35;1.20;;;14.60;73.20;;;;;;5025463;28;20132;-77
2023/01/04 14:54:47;;;;;;;5.40;1.40;;;;;;;;;;5024439;28;20049;-76
2023/01/04 14:57:14;;;;;;;3.05;1.40;;;;;;;;;;5018748;28;20087;-77
2023/01/04 14:59:42;;;;;;;2.95;1.27;;;;;;;;;;5021053;28;20384;-77
2023/01/04 15:02:10;;;;;;;4.82;1.35;;;;;;;;;;5019376;28;20050;-77
2023/01/04 15:04:37;;;;;;;2.50;1.20;;;;;;;;;;5021298;28;20426;-76
2023/01/04 15:07:04;;;;;;;2.88;1.48;;;;;;;;;;5020362;28;20052;-77
2023/01/04 15:09:32;;;;;;;7.43;1.40;;;;;;;;;;5020323;28;20053;-77
2023/01/04 15:11:59;;;;;;;4.30;1.38;;;;;;;;;;5021507;28;20065;-76
2023/01/04 15:14:26;;;;;;;5.32;1.52;;;;;;;;;;5018563;28;20566;-77
2023/01/04 15:16:53;;;;;;;3.67;1.35;;;;;;;;;;5018968;28;20061;-77
2023/01/04 15:19:20;;;;;;;3.58;1.45;;;;;;;;;;5020665;28;20053;-77
2023/01/04 15:21:48;;;;;;;4.55;1.55;;;;;;;;;;5022161;28;20064;-76
2023/01/04 15:24:15;;;;;;;2.92;1.50;;;;;;;;;;5020396;28;20557;-77
2023/01/04 15:26:43;;;;;;;4.35;1.50;;;;;;;;;;5024136;28;20088;-77